Time;durP1;ratioP1;P1;durP2;ratioP2;P2;SDS_P1;SDS_P2;PMS_P1;PMS_P2;Temp;Humidity;BMP_temperature;BMP_pressure;BME280_temperature;BME280_humidity;BME280_pressure;Samples;Min_cycle;Max_cycle;Signal;HPM_P1;HPM_P2
2022/08/10 00:01:23;;;;;;;4.82;4.38;;;;;;;17.77;80.89;100195.00;5084477;28;20020;-63
2022/08/10 00:03:49;;;;;;;4.78;4.32;;;;;;;17.93;80.46;100226.69;5084442;28;20092;-63
2022/08/10 00:06:14;;;;;;;6.80;4.25;;;;;;;17.87;81.02;100217.28;5084446;28;20255;-63
2022/08/10 00:08:41;;;;;;;4.00;3.70;;;;;;;17.85;80.78;100219.09;5062846;28;20013;-63
2022/08/10 00:11:07;;;;;;;8.05;4.05;;;;;;;17.86;80.85;100219.97;5053610;28;20325;-63
2022/08/10 00:13:34;;;;;;;4.82;3.60;;;;;;;17.84;81.08;100227.03;5044174;28;20017;-62
2022/08/10 00:15:59;;;;;;;6.70;3.88;;;;;;;17.84;80.90;100221.78;5044205;28;20093;-62
2022/08/10 00:18:26;;;;;;;5.82;3.60;;;;;;;17.83;81.24;100226.19;5043975;28;20025;-62
2022/08/10 00:20:52;;;;;;;7.88;4.63;;;;;;;17.83;81.12;100220.94;5043718;28;20038;-62
2022/08/10 00:23:18;;;;;;;4.50;4.07;;;;;;;17.82;80.56;100224.47;5053313;28;20029;-62
2022/08/10 00:25:44;;;;;;;7.38;4.40;;;;;;;17.77;80.85;100229.06;5063531;28;20029;-62
2022/08/10 00:28:10;;;;;;;7.55;3.75;;;;;;;17.75;81.25;100223.88;5048143;28;20103;-62
2022/08/10 00:30:36;;;;;;;9.80;6.18;;;;;;;17.68;80.53;100204.09;5083881;28;20032;-62
2022/08/10 00:33:02;;;;;;;5.35;3.95;;;;;;;17.77;80.76;100221.19;5076730;28;20059;-63
2022/08/10 00:35:27;;;;;;;5.00;3.70;;;;;;;17.71;80.92;100218.84;5070295;28;20039;-62
2022/08/10 00:37:53;;;;;;;6.30;3.92;;;;;;;17.64;81.43;100220.88;5071818;28;20360;-62
2022/08/10 00:40:19;;;;;;;4.25;3.85;;;;;;;17.64;81.41;100217.41;5083658;28;20032;-62
2022/08/10 00:42:44;;;;;;;4.13;3.72;;;;;;;17.68;80.80;100219.81;5082370;28;20028;-63
2022/08/10 00:45:10;;;;;;;4.72;3.75;;;;;;;17.67;80.85;100223.38;5049447;28;20213;-62
2022/08/10 00:47:36;;;;;;;4.05;3.53;;;;;;;17.67;80.82;100222.50;5057840;28;20092;-62
2022/08/10 00:50:03;;;;;;;8.63;4.25;;;;;;;17.65;80.97;100217.34;5053458;28;20070;-61
2022/08/10 00:52:30;;;;;;;4.22;3.58;;;;;;;17.64;81.16;100225.25;5048825;28;20381;-62
2022/08/10 00:54:57;;;;;;;4.70;4.00;;;;;;;17.58;80.77;100224.59;5063082;28;20077;-62
2022/08/10 00:57:24;;;;;;;5.07;3.72;;;;;;;17.61;80.99;100226.25;5063323;28;20095;-62
2022/08/10 00:59:50;;;;;;;4.85;4.25;;;;;;;17.56;80.58;100223.81;5047029;28;20032;-62
2022/08/10 01:02:15;;;;;;;5.70;3.53;;;;;;;17.55;80.71;100221.25;5043512;28;20021;-62
2022/08/10 01:04:41;;;;;;;4.75;3.50;;;;;;;17.52;81.02;100237.94;5049967;28;20029;-62
2022/08/10 01:07:25;;;;;;;6.97;4.35;;;;;;;17.48;80.93;100231.13;5063359;28;20029;-62
2022/08/10 01:10:28;;;;;;;5.80;3.55;;;;;;;17.51;80.58;100228.38;5062381;28;20328;-61
2022/08/10 01:13:12;;;;;;;6.70;3.72;;;;;;;17.17;81.29;100163.47;5043750;28;20057;-62
2022/08/10 01:15:40;;;;;;;5.38;3.97;;;;;;;17.50;80.74;100221.47;5083553;28;20029;-61
2022/08/10 01:18:20;;;;;;;4.47;3.83;;;;;;;17.45;80.92;100204.25;5083264;28;20097;-62
2022/08/10 01:20:58;;;;;;;5.20;3.55;;;;;;;17.47;80.91;100213.72;5051073;28;20385;-62
2022/08/10 01:23:43;;;;;;;6.70;3.85;;;;;;;17.47;80.81;100207.63;5068232;28;20058;-62
2022/08/10 01:26:40;;;;;;;5.43;3.92;;;;;;;17.40;80.82;100213.13;5062387;28;20191;-62
2022/08/10 01:29:24;;;;;;;4.72;3.92;;;;;;;17.48;81.06;100215.41;5048480;28;20096;-62
2022/08/10 01:31:53;;;;;;;5.57;3.85;;;;;;;17.24;80.81;100172.78;5063072;28;20056;-62
2022/08/10 01:34:28;;;;;;;5.47;4.10;;;;;;;17.36;80.61;100190.59;5063097;28;20083;-62
2022/08/10 01:37:01;;;;;;;6.82;3.92;;;;;;;17.41;80.34;100213.97;5062090;28;20025;-62
2022/08/10 01:39:36;;;;;;;5.50;4.40;;;;;;;17.25;81.00;100182.34;5043181;28;20067;-62
2022/08/10 01:42:03;;;;;;;4.45;3.75;;;;;;;17.50;80.55;100202.25;5078269;28;20224;-62
2022/08/10 01:44:34;;;;;;;4.93;3.63;;;;;;;17.43;80.21;100202.53;5082961;28;20186;-63
2022/08/10 01:50:02;;;;;;;7.10;3.83;;;;;;;17.12;80.70;100155.81;5042985;28;20537;-62
2022/08/10 01:52:30;;;;;;;4.63;3.70;;;;;;;17.41;80.43;100222.69;5043335;28;20029;-63
2022/08/10 01:54:57;;;;;;;8.30;4.32;;;;;;;17.30;80.45;100216.19;5050861;28;20032;-61
2022/08/10 01:57:26;;;;;;;5.40;3.50;;;;;;;17.04;80.74;100184.91;5061914;28;20059;-62
2022/08/10 01:59:55;;;;;;;4.90;3.15;;;;;;;17.06;80.96;100184.88;5058633;28;20029;-63
2022/08/10 02:02:22;;;;;;;6.22;3.65;;;;;;;17.40;80.34;100233.22;5064345;28;20313;-62
2022/08/10 02:04:49;;;;;;;5.57;3.03;;;;;;;17.33;80.23;100230.00;5062662;28;20048;-63
2022/08/10 02:07:18;;;;;;;5.95;3.88;;;;;;;17.27;80.31;100232.03;5064699;28;20024;-62
2022/08/10 02:09:52;;;;;;;5.38;3.45;;;;;;;17.28;80.53;100238.97;5063630;28;20037;-63
2022/08/10 02:12:21;;;;;;;3.42;3.13;;;;;;;17.29;80.99;100241.53;5050166;28;20021;-62
2022/08/10 02:14:53;;;;;;;5.47;3.50;;;;;;;17.00;80.89;100191.19;5063264;28;20036;-63
2022/08/10 02:17:27;;;;;;;4.32;3.58;;;;;;;16.99;80.37;100191.25;5064800;28;20336;-63
2022/08/10 02:19:57;;;;;;;5.47;3.35;;;;;;;17.27;80.67;100251.19;5064668;28;20078;-63
2022/08/10 02:22:24;;;;;;;4.05;2.97;;;;;;;17.29;80.93;100249.38;5062505;28;20048;-61
2022/08/10 02:24:51;;;;;;;3.40;3.10;;;;;;;17.27;80.99;100245.09;5047424;28;20022;-62
2022/08/10 02:27:21;;;;;;;5.50;3.00;;;;;;;17.01;80.81;100199.88;5066268;28;20050;-62
2022/08/10 02:29:48;;;;;;;5.80;2.90;;;;;;;17.32;80.55;100248.41;5081676;28;20036;-62
2022/08/10 02:32:14;;;;;;;6.90;4.53;;;;;;;17.34;80.63;100243.94;5065005;28;20037;-62
2022/08/10 02:34:41;;;;;;;4.57;3.47;;;;;;;17.37;80.16;100249.91;5046086;28;20063;-63
2022/08/10 02:37:08;;;;;;;8.32;3.38;;;;;;;17.45;79.91;100254.00;5047342;28;20029;-62
2022/08/10 02:39:35;;;;;;;8.20;3.72;;;;;;;17.44;80.50;100250.50;5066074;28;20078;-63
2022/08/10 02:42:19;;;;;;;5.57;3.50;;;;;;;17.16;80.35;100198.41;5064714;28;20021;-63
2022/08/10 02:45:03;;;;;;;7.00;3.53;;;;;;;17.45;80.41;100246.13;5080802;28;20039;-63
2022/08/10 02:47:44;;;;;;;6.13;3.28;;;;;;;17.10;80.28;100185.56;5058747;28;20021;-63
2022/08/10 02:50:31;;;;;;;4.10;3.00;;;;;;;17.40;80.18;100243.69;5055779;28;20029;-63
2022/08/10 02:53:20;;;;;;;3.75;2.80;;;;;;;17.50;80.67;100249.41;5053734;28;20092;-63
2022/08/10 02:56:09;;;;;;;3.50;3.20;;;;;;;17.48;79.57;100261.72;5065781;28;20025;-63
2022/08/10 02:59:01;;;;;;;3.10;2.80;;;;;;;17.48;80.20;100248.63;5065758;28;20092;-63
2022/08/10 03:01:32;;;;;;;3.22;3.03;;;;;;;17.14;79.68;100190.63;5063228;28;20033;-63
2022/08/10 03:04:06;;;;;;;4.43;3.40;;;;;;;17.49;79.97;100247.72;5064612;28;20328;-63
2022/08/10 03:06:42;;;;;;;4.57;2.90;;;;;;;17.53;79.48;100262.38;5077970;28;20041;-63
2022/08/10 03:09:12;;;;;;;4.57;2.80;;;;;;;17.33;79.36;100201.22;5045635;28;20029;-63
2022/08/10 03:11:39;;;;;;;8.10;3.22;;;;;;;17.55;79.82;100255.31;5045647;28;20025;-62
2022/08/10 03:14:07;;;;;;;3.00;2.80;;;;;;;17.53;79.50;100250.13;5065502;28;20028;-62
2022/08/10 03:16:35;;;;;;;3.22;2.92;;;;;;;17.57;79.42;100251.72;5082347;28;20059;-62
2022/08/10 03:19:03;;;;;;;6.88;3.88;;;;;;;17.25;79.57;100206.75;5065143;28;20048;-63
2022/08/10 03:21:31;;;;;;;5.13;3.30;;;;;;;17.39;79.73;100245.47;5065068;28;20031;-63
2022/08/10 03:24:01;;;;;;;3.85;3.17;;;;;;;17.42;79.42;100254.97;5065211;28;20036;-63
2022/08/10 03:26:31;;;;;;;9.25;3.60;;;;;;;17.40;79.36;100249.78;5053114;28;20614;-62
2022/08/10 03:28:59;;;;;;;4.43;3.40;;;;;;;17.20;79.29;100200.00;5050476;28;20262;-63
2022/08/10 03:31:27;;;;;;;3.67;3.17;;;;;;;17.19;80.02;100198.31;5048318;28;20321;-63
2022/08/10 03:33:54;;;;;;;6.05;2.70;;;;;;;17.48;79.67;100248.63;5063885;28;20025;-63
2022/08/10 03:36:20;;;;;;;4.65;3.35;;;;;;;17.54;79.60;100251.84;5064782;28;20088;-63
2022/08/10 03:38:50;;;;;;;4.53;3.00;;;;;;;17.42;79.30;100224.38;5064618;28;20215;-63
2022/08/10 03:41:19;;;;;;;5.45;3.40;;;;;;;17.39;80.04;100206.19;5054532;28;20026;-63
2022/08/10 03:43:49;;;;;;;6.60;3.50;;;;;;;17.67;79.87;100246.09;5055559;28;20091;-63
2022/08/10 03:46:20;;;;;;;5.05;2.80;;;;;;;17.68;79.68;100255.66;5054352;28;20029;-62
2022/08/10 03:48:50;;;;;;;4.57;3.08;;;;;;;17.77;79.24;100270.97;5084824;28;20120;-63
2022/08/10 03:51:21;;;;;;;4.85;2.70;;;;;;;17.84;78.73;100259.34;5047469;28;20036;-62
2022/08/10 03:53:48;;;;;;;4.10;2.78;;;;;;;17.85;79.19;100261.03;5058073;28;20051;-63
2022/08/10 03:56:14;;;;;;;4.53;2.55;;;;;;;17.87;78.63;100263.59;5064472;28;20029;-62
2022/08/10 03:58:39;;;;;;;5.47;2.60;;;;;;;17.93;78.44;100264.22;5064442;28;20047;-63
2022/08/10 04:01:06;;;;;;;2.72;2.50;;;;;;;17.98;77.85;100266.63;5064746;28;20040;-63
2022/08/10 04:03:32;;;;;;;4.50;3.10;;;;;;;18.08;78.18;100262.69;5080072;28;20084;-63
2022/08/10 04:05:58;;;;;;;2.72;2.53;;;;;;;17.99;77.85;100242.13;5080326;28;20038;-63
2022/08/10 04:08:24;;;;;;;2.78;2.45;;;;;;;18.20;77.60;100258.69;5084264;28;20032;-63
2022/08/10 04:10:49;;;;;;;2.90;2.60;;;;;;;18.26;77.12;100249.72;5071227;28;20025;-63
2022/08/10 04:13:15;;;;;;;4.65;2.55;;;;;;;18.32;77.77;100246.81;5046741;28;20048;-63
2022/08/10 04:15:40;;;;;;;3.05;2.35;;;;;;;18.45;76.68;100245.34;5084209;28;20020;-63
2022/08/10 04:18:06;;;;;;;2.63;2.42;;;;;;;18.28;75.52;100214.66;5065738;28;20033;-62
2022/08/10 04:20:39;;;;;;;3.92;2.00;;;;;;;18.48;76.17;100233.00;5076182;28;20024;-62
2022/08/10 04:23:12;;;;;;;4.05;2.35;;;;;;;18.49;76.27;100256.53;5084110;28;20063;-62
2022/08/10 04:25:39;;;;;;;3.88;2.40;;;;;;;18.48;76.35;100248.75;5078751;28;20027;-62
2022/08/10 04:28:06;;;;;;;2.58;2.38;;;;;;;18.49;76.54;100240.81;5064209;28;20044;-61
2022/08/10 04:30:34;;;;;;;4.82;3.10;;;;;;;18.44;76.12;100262.00;5083934;28;20099;-62
2022/08/10 04:33:02;;;;;;;5.57;2.50;;;;;;;18.21;76.40;100212.34;5067694;28;20052;-61
2022/08/10 04:35:30;;;;;;;5.22;2.20;;;;;;;18.48;75.67;100269.72;5052032;28;20025;-61
2022/08/10 04:37:58;;;;;;;3.47;2.30;;;;;;;18.48;76.43;100261.88;5043504;28;20147;-62
2022/08/10 04:40:24;;;;;;;4.05;2.90;;;;;;;18.51;75.71;100269.59;5049773;28;20037;-63
2022/08/10 04:42:50;;;;;;;4.95;4.00;;;;;;;18.65;75.86;100279.47;5042188;28;20052;-63
2022/08/10 04:45:16;;;;;;;39.88;24.98;;;;;;;18.69;75.62;100276.63;5043315;28;20068;-63
2022/08/10 04:47:42;;;;;;;24.02;14.95;;;;;;;18.70;75.66;100275.72;5055576;28;20317;-62
2022/08/10 04:50:08;;;;;;;33.47;18.88;;;;;;;18.87;75.63;100279.34;5070917;28;20032;-62
2022/08/10 04:52:34;;;;;;;19.08;10.77;;;;;;;18.91;75.37;100278.28;5075540;28;20375;-62
2022/08/10 04:54:59;;;;;;;8.65;5.55;;;;;;;19.01;75.41;100270.84;5044859;28;20025;-63
2022/08/10 04:57:25;;;;;;;9.48;5.38;;;;;;;19.24;74.36;100260.09;5043676;28;20025;-63
2022/08/10 04:59:51;;;;;;;4.45;3.40;;;;;;;19.79;72.75;100277.56;5056719;28;20025;-63
2022/08/10 05:02:17;;;;;;;6.93;3.63;;;;;;;20.24;71.12;100274.47;5064503;28;20066;-63
2022/08/10 05:04:42;;;;;;;4.82;3.13;;;;;;;20.39;70.36;100281.53;5065446;28;20036;-63
2022/08/10 05:07:11;;;;;;;4.45;2.45;;;;;;;21.12;69.11;100286.41;5043234;28;20214;-63
2022/08/10 05:09:38;;;;;;;3.63;2.20;;;;;;;21.83;67.46;100279.78;5049654;28;20041;-63
2022/08/10 05:12:04;;;;;;;3.40;2.20;;;;;;;21.84;67.21;100283.25;5046962;28;20061;-63
2022/08/10 05:14:30;;;;;;;3.70;2.38;;;;;;;21.60;67.10;100277.63;5077249;28;20348;-63
2022/08/10 05:16:55;;;;;;;4.45;2.08;;;;;;;21.54;67.92;100279.66;5066999;28;20040;-62
2022/08/10 05:19:21;;;;;;;3.97;2.08;;;;;;;21.14;66.39;100283.69;5062997;28;20025;-62
2022/08/10 05:21:46;;;;;;;3.20;2.17;;;;;;;21.07;66.78;100275.28;5063224;28;20028;-62
2022/08/10 05:24:12;;;;;;;3.45;1.70;;;;;;;20.77;67.67;100278.66;5063159;28;20035;-62
2022/08/10 05:26:38;;;;;;;3.20;1.63;;;;;;;20.63;67.61;100270.63;5049323;28;20029;-62
2022/08/10 05:29:03;;;;;;;3.13;1.80;;;;;;;20.64;68.48;100267.91;5042981;28;20025;-62
2022/08/10 05:31:29;;;;;;;8.40;2.50;;;;;;;20.63;69.12;100266.22;5043194;28;20099;-62
2022/08/10 05:33:55;;;;;;;4.30;2.30;;;;;;;20.37;68.95;100256.25;5043292;28;20022;-62
2022/08/10 05:36:21;;;;;;;7.30;2.20;;;;;;;20.42;69.30;100252.44;5060377;28;20025;-62
2022/08/10 05:38:48;;;;;;;3.13;1.80;;;;;;;20.16;69.28;100217.81;5052105;28;20049;-62
2022/08/10 05:41:15;;;;;;;3.90;2.17;;;;;;;20.42;69.85;100257.72;5065584;28;20040;-62
2022/08/10 05:43:42;;;;;;;4.55;2.15;;;;;;;20.41;70.02;100249.88;5087067;28;20058;-62
2022/08/10 05:46:07;;;;;;;4.82;2.35;;;;;;;20.30;70.33;100224.16;5077718;28;20032;-62
2022/08/10 05:48:35;;;;;;;4.88;2.10;;;;;;;20.39;70.66;100249.94;5055517;28;20025;-62
2022/08/10 05:51:01;;;;;;;3.28;2.47;;;;;;;20.34;70.58;100247.56;5050282;28;20056;-62
2022/08/10 05:53:27;;;;;;;4.68;2.22;;;;;;;20.39;69.73;100249.94;5054551;28;20117;-62
2022/08/10 05:55:53;;;;;;;5.07;2.17;;;;;;;20.41;69.08;100257.75;5062505;28;20253;-62
2022/08/10 05:58:19;;;;;;;5.75;3.80;;;;;;;20.49;69.41;100256.44;5066759;28;20052;-63
2022/08/10 06:00:52;;;;;;;3.40;2.45;;;;;;;20.44;69.56;100265.50;5065615;28;20044;-61
2022/08/10 06:03:23;;;;;;;4.10;2.72;;;;;;;20.41;70.53;100256.00;5084648;28;20032;-61
2022/08/10 06:05:52;;;;;;;3.80;2.17;;;;;;;20.46;70.16;100266.28;5059047;28;20026;-62
2022/08/10 06:08:23;;;;;;;2.83;2.05;;;;;;;20.52;70.01;100272.06;5060925;28;20025;-61
2022/08/10 06:10:53;;;;;;;4.80;2.50;;;;;;;20.32;69.71;100222.28;5071811;28;20280;-61
2022/08/10 06:16:09;;;;;;;5.03;2.25;;;;;;;20.50;69.55;100231.81;5046516;28;20037;-62
2022/08/10 06:18:36;;;;;;;4.55;2.05;;;;;;;20.77;69.31;100276.03;5046497;28;20044;-62
2022/08/10 06:21:03;;;;;;;2.90;2.00;;;;;;;20.71;69.86;100280.75;5061772;28;20021;-62
2022/08/10 06:23:31;;;;;;;3.72;2.08;;;;;;;20.68;69.57;100287.06;5063179;28;20080;-62
2022/08/10 06:25:57;;;;;;;4.65;2.15;;;;;;;20.61;69.07;100285.66;5066166;28;20356;-61
2022/08/10 06:28:24;;;;;;;7.40;2.10;;;;;;;20.63;69.72;100283.78;5063825;28;20033;-63
2022/08/10 06:30:52;;;;;;;2.83;2.10;;;;;;;20.60;69.03;100261.13;5058226;28;20066;-62
2022/08/10 06:33:21;;;;;;;2.85;2.00;;;;;;;20.52;69.44;100251.00;5052327;28;20036;-61
2022/08/10 06:35:51;;;;;;;2.63;1.83;;;;;;;20.48;68.53;100249.47;5066401;28;20028;-61
2022/08/10 06:38:17;;;;;;;2.88;1.85;;;;;;;20.69;69.09;100300.16;5056578;28;20036;-61
2022/08/10 06:40:47;;;;;;;3.22;1.80;;;;;;;20.53;68.50;100255.31;5053097;28;20048;-62
2022/08/10 06:43:15;;;;;;;2.95;1.90;;;;;;;20.48;68.89;100262.63;5045930;28;20033;-61
2022/08/10 06:45:46;;;;;;;2.33;1.80;;;;;;;20.83;67.95;100325.72;5045965;28;20017;-62
2022/08/10 06:48:17;;;;;;;2.50;1.80;;;;;;;21.02;67.75;100324.72;5044639;28;20033;-61
2022/08/10 06:50:49;;;;;;;5.43;2.05;;;;;;;20.95;67.35;100325.97;5045889;28;20098;-62
2022/08/10 06:53:17;;;;;;;6.38;2.47;;;;;;;21.12;67.12;100331.19;5045520;28;20029;-62
2022/08/10 06:55:52;;;;;;;3.25;2.05;;;;;;;20.79;66.62;100283.84;5058949;28;20382;-62
2022/08/10 06:58:20;;;;;;;2.03;1.90;;;;;;;20.76;66.99;100279.59;5065743;28;20028;-63
2022/08/10 07:00:49;;;;;;;5.38;1.85;;;;;;;21.02;66.06;100332.59;5065721;28;20031;-62
2022/08/10 07:03:17;;;;;;;3.63;2.05;;;;;;;21.03;66.35;100329.06;5065225;28;20313;-62
2022/08/10 07:05:48;;;;;;;2.90;1.95;;;;;;;20.81;65.82;100282.00;5053195;28;20022;-62
2022/08/10 07:08:17;;;;;;;3.05;2.00;;;;;;;20.97;65.69;100277.56;5072888;28;20102;-62
2022/08/10 07:10:45;;;;;;;2.10;1.90;;;;;;;21.36;64.30;100312.31;5076827;28;20143;-62
2022/08/10 07:13:14;;;;;;;2.30;2.10;;;;;;;21.35;64.57;100274.56;5045475;28;20034;-64
2022/08/10 07:15:42;;;;;;;2.92;1.77;;;;;;;21.57;64.02;100285.72;5045489;28;20030;-62
2022/08/10 07:18:10;;;;;;;4.38;2.00;;;;;;;21.76;63.96;100317.13;5061036;28;20024;-61
2022/08/10 07:20:36;;;;;;;3.38;2.13;;;;;;;21.79;64.10;100311.66;5076652;28;20025;-61
2022/08/10 07:23:02;;;;;;;3.42;1.60;;;;;;;21.81;62.47;100307.16;5071724;28;20037;-62
2022/08/10 07:25:29;;;;;;;3.13;1.50;;;;;;;21.89;62.26;100311.03;5049314;28;20025;-61
2022/08/10 07:27:57;;;;;;;2.95;1.80;;;;;;;21.75;61.76;100273.22;5085422;28;20317;-62
2022/08/10 07:30:27;;;;;;;2.97;2.10;;;;;;;21.73;61.58;100270.69;5049366;28;20029;-62
2022/08/10 07:32:54;;;;;;;2.75;1.77;;;;;;;22.03;60.60;100322.56;5057537;28;20216;-61
2022/08/10 07:35:21;;;;;;;3.17;1.85;;;;;;;22.15;60.39;100306.00;5065065;28;20108;-61
2022/08/10 07:37:50;;;;;;;1.50;1.40;;;;;;;21.90;57.71;100314.53;5066205;28;20052;-62
2022/08/10 07:40:21;;;;;;;5.28;2.15;;;;;;;21.79;56.94;100282.66;5064934;28;20096;-61
2022/08/10 07:42:51;;;;;;;1.90;1.77;;;;;;;21.70;56.18;100334.13;5064953;28;20031;-62
2022/08/10 07:45:16;;;;;;;6.13;1.90;;;;;;;21.80;55.95;100318.63;5079383;28;20040;-62
2022/08/10 07:47:54;;;;;;;2.42;1.95;;;;;;;21.29;55.49;100276.69;5076923;28;20059;-62
2022/08/10 07:50:23;;;;;;;4.43;1.48;;;;;;;21.55;56.24;100281.34;5066730;28;20017;-62
2022/08/10 07:52:52;;;;;;;1.60;1.50;;;;;;;21.42;54.73;100282.97;5044663;28;20037;-63
2022/08/10 07:55:19;;;;;;;3.25;1.50;;;;;;;21.62;56.56;100283.63;5055643;28;20044;-62
2022/08/10 07:57:48;;;;;;;1.90;1.35;;;;;;;21.82;57.01;100285.09;5064847;28;20024;-63
2022/08/10 08:00:15;;;;;;;1.88;1.73;;;;;;;22.18;56.48;100326.94;5063715;28;20017;-64
2022/08/10 08:02:46;;;;;;;5.00;1.92;;;;;;;22.33;55.67;100338.41;5063104;28;20021;-63
2022/08/10 08:05:13;;;;;;;;;;;;;;;22.43;55.98;100322.00;5072876;28;20126;-62
2022/08/10 08:07:41;;;;;;;4.13;1.50;;;;;;;22.40;56.26;100315.97;5081190;28;19905;-62
2022/08/10 08:10:12;;;;;;;4.00;1.67;;;;;;;22.49;56.13;100311.06;5063341;28;20113;-62
2022/08/10 08:12:39;;;;;;;1.50;1.40;;;;;;;22.51;56.05;100303.91;5083761;28;20028;-63
2022/08/10 08:15:08;;;;;;;2.30;1.45;;;;;;;22.28;55.97;100284.16;5053893;28;20294;-62
2022/08/10 08:17:36;;;;;;;4.10;1.70;;;;;;;22.53;55.84;100305.50;5044150;28;20057;-62
2022/08/10 08:20:03;;;;;;;1.83;1.52;;;;;;;22.70;56.27;100309.75;5042711;28;20049;-62
2022/08/10 08:22:30;;;;;;;1.90;1.60;;;;;;;22.68;54.45;100316.06;5043597;28;20029;-62
2022/08/10 08:24:57;;;;;;;2.15;1.50;;;;;;;22.50;54.02;100313.63;5043669;28;20326;-62
2022/08/10 08:27:24;;;;;;;2.70;1.50;;;;;;;22.56;54.77;100318.53;5043670;28;20024;-62
2022/08/10 08:29:51;;;;;;;3.00;1.67;;;;;;;22.48;54.35;100310.22;5043614;28;20132;-62
2022/08/10 08:32:21;;;;;;;2.15;1.70;;;;;;;22.00;55.50;100262.06;5043509;28;20059;-62
2022/08/10 08:34:49;;;;;;;1.77;1.67;;;;;;;22.26;53.84;100312.44;5047432;28;20032;-64
2022/08/10 08:37:17;;;;;;;2.63;1.30;;;;;;;22.44;54.22;100297.31;5063292;28;20029;-62
2022/08/10 08:39:44;;;;;;;2.20;1.30;;;;;;;22.64;54.06;100310.13;5063909;28;20032;-62
2022/08/10 08:42:47;;;;;;;1.60;1.50;;;;;;;22.64;53.22;100306.63;5079191;28;20066;-62
2022/08/10 08:45:22;;;;;;;1.85;1.45;;;;;;;22.56;53.26;100297.41;5051603;28;20037;-62
2022/08/10 08:48:19;;;;;;;1.70;1.60;;;;;;;22.37;53.66;100291.53;5043750;28;20059;-62
2022/08/10 08:51:05;;;;;;;9.02;2.38;;;;;;;22.34;54.58;100279.38;5067473;28;20045;-62
2022/08/10 08:53:57;;;;;;;2.30;1.70;;;;;;;22.22;53.67;100241.38;5083299;28;20024;-62
2022/08/10 08:56:32;;;;;;;4.28;1.60;;;;;;;22.55;54.71;100282.50;5062335;28;20032;-62
2022/08/10 08:59:13;;;;;;;2.75;1.42;;;;;;;22.47;53.79;100255.72;5063426;28;20080;-62
2022/08/10 09:01:57;;;;;;;3.30;1.85;;;;;;;22.76;53.96;100284.75;5063387;28;20043;-62
2022/08/10 09:04:31;;;;;;;2.25;1.38;;;;;;;22.88;52.90;100285.75;5063368;28;20028;-62
2022/08/10 09:07:18;;;;;;;5.03;1.50;;;;;;;22.75;52.98;100289.16;5063434;28;20025;-62
2022/08/10 09:10:30;;;;;;;1.60;1.50;;;;;;;22.74;52.38;100287.47;5063586;28;20024;-62
2022/08/10 09:13:07;;;;;;;1.58;1.33;;;;;;;22.58;50.73;100298.13;5042529;28;20017;-62
2022/08/10 09:15:39;;;;;;;1.90;1.50;;;;;;;22.49;51.58;100285.53;5043355;28;20094;-62
2022/08/10 09:18:04;;;;;;;1.40;1.30;;;;;;;22.62;51.74;100282.97;5057878;28;20118;-63
2022/08/10 09:20:39;;;;;;;1.52;1.42;;;;;;;22.52;50.86;100277.41;5053387;28;20036;-62
2022/08/10 09:23:23;;;;;;;4.45;1.73;;;;;;;22.57;51.22;100270.06;5043158;28;20021;-62
2022/08/10 09:26:13;;;;;;;3.90;1.45;;;;;;;22.65;51.32;100269.56;5051233;28;20035;-61
2022/08/10 09:28:42;;;;;;;2.45;1.40;;;;;;;22.42;51.18;100223.50;5077859;28;20079;-61
2022/08/10 09:31:10;;;;;;;3.78;1.50;;;;;;;22.81;52.29;100272.09;5041985;28;20032;-61
2022/08/10 09:33:42;;;;;;;1.48;1.38;;;;;;;22.80;51.41;100273.03;5043358;28;20021;-61
2022/08/10 09:36:16;;;;;;;1.63;1.40;;;;;;;22.84;50.79;100261.31;5042973;28;20093;-61
2022/08/10 09:39:16;;;;;;;1.80;1.10;;;;;;;22.85;49.21;100264.84;5053984;28;20075;-61
2022/08/10 09:42:06;;;;;;;1.42;1.30;;;;;;;22.95;49.35;100257.19;5051729;28;20021;-61
2022/08/10 09:44:42;;;;;;;1.30;1.30;;;;;;;22.95;49.50;100263.28;5052778;28;20063;-62
2022/08/10 09:47:21;;;;;;;2.13;1.48;;;;;;;22.92;50.98;100232.63;5049887;28;20017;-61
2022/08/10 09:50:12;;;;;;;5.15;1.50;;;;;;;23.10;50.73;100249.09;5056446;28;20048;-62
2022/08/10 09:52:52;;;;;;;1.42;1.33;;;;;;;23.09;51.41;100252.69;5063388;28;20037;-61
2022/08/10 09:55:33;;;;;;;2.28;1.30;;;;;;;23.15;50.22;100250.63;5060212;28;20036;-61
2022/08/10 09:58:26;;;;;;;2.67;1.70;;;;;;;23.29;50.92;100242.66;5061668;28;20021;-61
2022/08/10 10:01:17;;;;;;;1.60;1.30;;;;;;;23.33;50.64;100248.56;5060111;28;20246;-61
2022/08/10 10:04:05;;;;;;;2.67;1.42;;;;;;;23.30;50.65;100254.91;5061083;28;20032;-61
2022/08/10 10:06:42;;;;;;;1.77;1.42;;;;;;;23.35;49.88;100251.97;5057959;28;20339;-62
2022/08/10 10:09:35;;;;;;;1.48;1.10;;;;;;;23.17;48.72;100254.84;5061617;28;20092;-62
2022/08/10 10:12:28;;;;;;;3.33;1.50;;;;;;;23.06;48.73;100274.03;5060884;28;20082;-63
2022/08/10 10:15:23;;;;;;;1.38;1.20;;;;;;;23.03;47.70;100262.78;5062643;28;20342;-63
2022/08/10 10:18:01;;;;;;;2.35;1.40;;;;;;;23.18;49.42;100263.66;5061539;28;20052;-62
2022/08/10 10:20:50;;;;;;;2.55;1.67;;;;;;;23.17;50.19;100261.94;5058133;28;20098;-62
2022/08/10 10:23:35;;;;;;;3.40;1.75;;;;;;;23.26;49.26;100264.00;5045738;28;20258;-63
2022/08/10 10:26:27;;;;;;;3.35;1.40;;;;;;;22.91;46.80;100264.44;5044534;28;20032;-62
2022/08/10 10:29:17;;;;;;;;;;;;;;;22.95;46.64;100255.38;5063674;28;20080;-62
2022/08/10 10:31:57;;;;;;;1.40;1.30;;;;;;;23.19;49.11;100262.69;5064436;28;19934;-62
2022/08/10 10:34:44;;;;;;;1.13;1.10;;;;;;;22.93;46.84;100214.97;5064087;28;20104;-62
2022/08/10 10:37:12;;;;;;;2.15;1.20;;;;;;;23.09;47.18;100214.84;5064833;28;20024;-61
2022/08/10 10:39:46;;;;;;;2.80;1.20;;;;;;;23.38;46.67;100246.47;5064979;28;20280;-62
2022/08/10 10:42:20;;;;;;;1.40;1.30;;;;;;;23.53;47.99;100248.09;5062624;28;20202;-62
2022/08/10 10:45:04;;;;;;;3.15;1.30;;;;;;;23.66;46.91;100252.56;5064058;28;20024;-61
2022/08/10 10:47:36;;;;;;;1.40;1.30;;;;;;;23.34;46.74;100237.88;5061849;28;20095;-62
2022/08/10 10:50:27;;;;;;;2.28;1.30;;;;;;;23.54;46.98;100248.94;5065928;28;20025;-61
2022/08/10 10:53:20;;;;;;;6.78;1.80;;;;;;;23.65;47.79;100245.59;5063612;28;20029;-61
2022/08/10 10:56:14;;;;;;;5.05;1.23;;;;;;;23.42;48.08;100210.97;5063373;28;20084;-61
2022/08/10 10:58:57;;;;;;;1.42;1.33;;;;;;;23.57;47.81;100231.09;5074809;28;20088;-62
2022/08/10 11:01:48;;;;;;;1.83;1.40;;;;;;;23.48;46.87;100192.03;5061315;28;20245;-62
2022/08/10 11:04:35;;;;;;;1.98;1.30;;;;;;;23.47;46.12;100224.69;5037717;28;20214;-62
2022/08/10 11:07:09;;;;;;;3.13;1.40;;;;;;;23.68;48.07;100246.22;5064019;28;20037;-62
2022/08/10 11:10:06;;;;;;;1.63;1.20;;;;;;;23.72;47.02;100241.59;5061977;28;20025;-61
2022/08/10 11:12:52;;;;;;;2.88;1.40;;;;;;;23.78;47.51;100238.50;5061357;28;20318;-62
2022/08/10 11:15:29;;;;;;;1.85;1.50;;;;;;;23.55;46.47;100242.72;5057631;28;20138;-63
2022/08/10 11:18:03;;;;;;;2.85;1.60;;;;;;;23.44;46.25;100191.41;5060452;28;20095;-63
2022/08/10 11:20:53;;;;;;;1.48;1.38;;;;;;;23.68;47.28;100242.72;5059389;28;20321;-63
2022/08/10 11:23:35;;;;;;;1.58;1.27;;;;;;;23.77;45.70;100250.03;5060895;28;20036;-63
2022/08/10 11:26:25;;;;;;;2.22;1.30;;;;;;;23.84;45.73;100242.53;5059751;28;20033;-62
2022/08/10 11:29:17;;;;;;;2.47;1.65;;;;;;;23.66;46.25;100195.22;5059771;28;20022;-62
2022/08/10 11:31:47;;;;;;;1.67;1.27;;;;;;;23.65;45.59;100195.34;5058756;28;20079;-61
2022/08/10 11:34:37;;;;;;;1.67;1.57;;;;;;;23.88;44.83;100241.41;5055693;28;20382;-62
2022/08/10 11:37:21;;;;;;;2.08;1.52;;;;;;;23.75;44.96;100239.56;5060859;28;20433;-65
2022/08/10 11:40:08;;;;;;;2.28;1.40;;;;;;;23.79;45.06;100245.50;5042550;28;20076;-62
2022/08/10 11:42:50;;;;;;;2.70;1.73;;;;;;;23.74;45.35;100245.81;5043131;28;20029;-61
2022/08/10 11:45:24;;;;;;;2.08;1.20;;;;;;;23.40;44.56;100203.13;5042944;28;20218;-62
2022/08/10 11:47:58;;;;;;;2.60;1.40;;;;;;;23.52;45.62;100196.16;5060343;28;20029;-62
2022/08/10 11:50:27;;;;;;;2.92;1.50;;;;;;;23.64;45.84;100193.63;5063156;28;20028;-62
2022/08/10 11:53:08;;;;;;;1.58;1.35;;;;;;;23.87;46.31;100237.94;5064376;28;20327;-61
2022/08/10 11:55:34;;;;;;;1.90;1.45;;;;;;;23.87;45.44;100234.41;5063383;28;20159;-61